This is the latest recevied weather packets stored in our database for station/object KJ4HF. If no packets are shown the sender has not sent any weather packets the latest 10 day(s).
| Time | Temp. | Humidity | Pressure | Rain* | Wind** | Luminosity | Snow |
|---|---|---|---|---|---|---|---|
| 1777973144 | 12.22° C | 77% | 1015.8 hPa | 0 mm | - | 0 W/m² | - |
| 1777972843 | 12.22° C | 76% | 1015.9 hPa | 0 mm | - | 0 W/m² | - |
| 1777972556 | 12.22° C | 75% | 1015.7 hPa | 0 mm | - | 0 W/m² | - |
| 1777968643 | 14.44° C | 67% | 1015.2 hPa | 0 mm | - | 0 W/m² | - |
| 1777966842 | 13.89° C | 68% | 1015.1 hPa | 0 mm | - | 0 W/m² | - |
| 1777964142 | 15° C | 63% | 1014.9 hPa | 0 mm | - | 0 W/m² | - |
| 1777963243 | 15° C | 62% | 1014.9 hPa | 0 mm | - | 0 W/m² | - |
| 1777962343 | 15.56° C | 59% | 1015.1 hPa | 0 mm | - | 0 W/m² | - |
| 1777959642 | 15.56° C | 54% | 1014.8 hPa | 0 mm | - | 0 W/m² | - |
| 1777956044 | 16.11° C | 48% | 1015.3 hPa | 0 mm | - | 0 W/m² | - |
| 1777955142 | 17.22° C | 45% | 1015.4 hPa | 0 mm | - | 0 W/m² | - |
| 1777953342 | 17.78° C | 43% | 1015.2 hPa | 0 mm | - | 0 W/m² | - |
| 1777947349 | 18.89° C | 39% | 1014.9 hPa | 0 mm | - | 0 W/m² | - |
| 1777944042 | 19.44° C | 39% | 1014.5 hPa | 0 mm | - | 0 W/m² | - |
| 1777940442 | 19.44° C | 38% | 1014.1 hPa | 0 mm | - | 0 W/m² | - |
| 1777939545 | 20.56° C | 36% | 1014 hPa | 0 mm | - | 7 W/m² | - |
| 1777939266 | 20.56° C | 36% | 1013.9 hPa | 0 mm | - | 11 W/m² | - |
| 1777938944 | 21.11° C | 35% | 1013.9 hPa | 0 mm | - | 14 W/m² | - |
| 1777938350 | 22.22° C | 33% | 1013.7 hPa | 0 mm | - | 21 W/m² | - |
| 1777935041 | 23.89° C | 28% | 1013.4 hPa | 0 mm | - | 42 W/m² | - |
| 1777934145 | 23.89° C | 29% | 1013.5 hPa | 0 mm | - | 49 W/m² | - |
| 1777933851 | 24.44° C | 28% | 1013.5 hPa | 0 mm | - | 58 W/m² | - |
| 1777932644 | 25° C | 29% | 1013.5 hPa | 0 mm | - | 306 W/m² | - |
| 1777932344 | 25° C | 28% | 1013.4 hPa | 0 mm | - | 316 W/m² | - |
| 1777930253 | 25.56° C | 30% | 1013.5 hPa | 0 mm | - | 454 W/m² | - |
* Rain latest hour (hover to see other rain measurements)
** Current wind speed in m/s (hover to see current wind gust speed)